sensor_id;sensor_type;location;lat;lon;timestamp;pressure;altitude;pressure_sealevel;temperature;humidity
13765;BME280;6953;48.810;9.204;2023-03-22T00:01:28;98354.09;;;10.02;93.78
13765;BME280;6953;48.810;9.204;2023-03-22T00:03:55;98602.22;;;11.42;94.11
13765;BME280;6953;48.810;9.204;2023-03-22T00:06:21;98613.88;;;11.23;94.43
13765;BME280;6953;48.810;9.204;2023-03-22T00:08:50;98595.25;;;11.27;95.10
13765;BME280;6953;48.810;9.204;2023-03-22T00:11:16;98331.88;;;9.63;95.18
13765;BME280;6953;48.810;9.204;2023-03-22T00:13:42;98595.47;;;11.23;95.52
13765;BME280;6953;48.810;9.204;2023-03-22T00:16:08;98571.19;;;11.19;95.48
13765;BME280;6953;48.810;9.204;2023-03-22T00:18:35;98593.75;;;11.37;95.61
13765;BME280;6953;48.810;9.204;2023-03-22T00:21:01;98349.78;;;10.01;94.94
13765;BME280;6953;48.810;9.204;2023-03-22T00:23:27;98531.66;;;11.07;94.41
13765;BME280;6953;48.810;9.204;2023-03-22T00:25:53;98616.63;;;11.66;94.47
13765;BME280;6953;48.810;9.204;2023-03-22T00:28:18;98587.53;;;11.69;94.43
13765;BME280;6953;48.810;9.204;2023-03-22T00:30:59;98312.06;;;10.19;94.43
13765;BME280;6953;48.810;9.204;2023-03-22T00:33:25;98563.72;;;11.72;94.11
13765;BME280;6953;48.810;9.204;2023-03-22T00:35:52;98535.78;;;11.55;94.31
13765;BME280;6953;48.810;9.204;2023-03-22T00:38:18;98326.06;;;10.33;94.01
13765;BME280;6953;48.810;9.204;2023-03-22T00:40:44;98500.06;;;11.38;94.47
13765;BME280;6953;48.810;9.204;2023-03-22T00:43:10;98586.69;;;11.82;94.40
13765;BME280;6953;48.810;9.204;2023-03-22T00:45:35;98319.75;;;10.22;94.47
13765;BME280;6953;48.810;9.204;2023-03-22T00:48:02;98580.91;;;11.77;94.91
13765;BME280;6953;48.810;9.204;2023-03-22T00:50:28;98613.09;;;11.81;94.56
13765;BME280;6953;48.810;9.204;2023-03-22T00:52:54;98597.03;;;11.85;94.39
13765;BME280;6953;48.810;9.204;2023-03-22T00:55:19;98566.44;;;11.84;94.12
13765;BME280;6953;48.810;9.204;2023-03-22T00:57:44;98487.88;;;11.37;94.16
13765;BME280;6953;48.810;9.204;2023-03-22T01:00:10;98303.19;;;10.22;94.06
13765;BME280;6953;48.810;9.204;2023-03-22T01:02:38;98303.63;;;10.14;94.54
13765;BME280;6953;48.810;9.204;2023-03-22T01:05:04;98526.34;;;11.38;94.99
13765;BME280;6953;48.810;9.204;2023-03-22T01:07:31;98564.41;;;11.60;95.26
13765;BME280;6953;48.810;9.204;2023-03-22T01:09:56;98556.34;;;11.63;95.25
13765;BME280;6953;48.810;9.204;2023-03-22T01:12:22;98536.56;;;11.57;95.17
13765;BME280;6953;48.810;9.204;2023-03-22T01:14:47;98551.75;;;11.66;95.01
13765;BME280;6953;48.810;9.204;2023-03-22T01:17:12;98534.41;;;11.48;94.95
13765;BME280;6953;48.810;9.204;2023-03-22T01:19:38;98189.13;;;9.25;94.89
13765;BME280;6953;48.810;9.204;2023-03-22T01:22:05;98459.16;;;10.75;96.39
13765;BME280;6953;48.810;9.204;2023-03-22T01:24:30;98526.94;;;10.98;97.02
13765;BME280;6953;48.810;9.204;2023-03-22T01:26:56;98580.28;;;10.98;97.26
13765;BME280;6953;48.810;9.204;2023-03-22T01:29:23;98478.25;;;10.47;97.97
13765;BME280;6953;48.810;9.204;2023-03-22T01:31:48;98544.66;;;10.79;98.34
13765;BME280;6953;48.810;9.204;2023-03-22T01:34:13;98266.53;;;9.14;99.03
13765;BME280;6953;48.810;9.204;2023-03-22T01:36:39;98535.00;;;10.64;99.84
13765;BME280;6953;48.810;9.204;2023-03-22T01:39:04;98524.00;;;10.57;100.00
13765;BME280;6953;48.810;9.204;2023-03-22T01:41:30;98392.44;;;9.72;100.00
13765;BME280;6953;48.810;9.204;2023-03-22T01:44:11;98528.25;;;10.44;100.00
13765;BME280;6953;48.810;9.204;2023-03-22T01:46:41;98564.84;;;10.31;100.00
13765;BME280;6953;48.810;9.204;2023-03-22T01:49:13;98165.34;;;8.19;100.00
13765;BME280;6953;48.810;9.204;2023-03-22T01:51:40;98227.75;;;8.57;100.00
13765;BME280;6953;48.810;9.204;2023-03-22T01:54:09;98285.38;;;8.88;100.00
13765;BME280;6953;48.810;9.204;2023-03-22T01:56:39;98290.31;;;8.77;100.00
13765;BME280;6953;48.810;9.204;2023-03-22T01:59:06;98491.09;;;10.06;100.00
13765;BME280;6953;48.810;9.204;2023-03-22T02:01:34;98526.09;;;10.20;100.00
13765;BME280;6953;48.810;9.204;2023-03-22T02:04:18;98474.00;;;9.82;100.00
13765;BME280;6953;48.810;9.204;2023-03-22T02:06:53;98510.00;;;10.11;100.00
13765;BME280;6953;48.810;9.204;2023-03-22T02:09:19;98319.28;;;8.89;100.00
13765;BME280;6953;48.810;9.204;2023-03-22T02:23:35;98503.09;;;9.60;100.00
13765;BME280;6953;48.810;9.204;2023-03-22T02:36:30;98496.81;;;9.47;100.00
13765;BME280;6953;48.810;9.204;2023-03-22T02:42:12;98494.63;;;9.38;100.00
13765;BME280;6953;48.810;9.204;2023-03-22T02:44:50;98498.50;;;9.31;100.00
13765;BME280;6953;48.810;9.204;2023-03-22T02:47:31;98503.22;;;9.25;100.00
13765;BME280;6953;48.810;9.204;2023-03-22T02:50:06;98437.00;;;8.72;100.00
13765;BME280;6953;48.810;9.204;2023-03-22T02:55:25;98504.59;;;9.15;100.00
13765;BME280;6953;48.810;9.204;2023-03-22T02:58:08;98498.66;;;9.12;100.00
13765;BME280;6953;48.810;9.204;2023-03-22T03:00:35;98519.66;;;8.93;100.00
13765;BME280;6953;48.810;9.204;2023-03-22T03:03:06;98217.19;;;7.40;100.00
13765;BME280;6953;48.810;9.204;2023-03-22T03:05:38;98422.91;;;8.58;100.00
13765;BME280;6953;48.810;9.204;2023-03-22T03:08:06;98508.81;;;9.01;100.00
13765;BME280;6953;48.810;9.204;2023-03-22T03:10:34;98212.94;;;7.37;100.00
13765;BME280;6953;48.810;9.204;2023-03-22T03:13:00;98481.47;;;8.72;100.00
13765;BME280;6953;48.810;9.204;2023-03-22T03:15:25;98394.47;;;8.52;100.00
13765;BME280;6953;48.810;9.204;2023-03-22T03:18:00;98513.75;;;9.07;100.00
13765;BME280;6953;48.810;9.204;2023-03-22T03:20:54;98491.72;;;9.27;100.00
13765;BME280;6953;48.810;9.204;2023-03-22T03:29:17;98469.66;;;8.99;100.00
13765;BME280;6953;48.810;9.204;2023-03-22T03:31:49;98503.66;;;9.16;100.00
13765;BME280;6953;48.810;9.204;2023-03-22T03:34:35;98510.06;;;9.11;100.00
13765;BME280;6953;48.810;9.204;2023-03-22T03:37:06;98538.47;;;9.35;100.00
13765;BME280;6953;48.810;9.204;2023-03-22T03:39:38;98442.63;;;8.99;100.00
13765;BME280;6953;48.810;9.204;2023-03-22T03:42:06;98463.88;;;8.93;100.00
13765;BME280;6953;48.810;9.204;2023-03-22T03:44:35;98191.09;;;7.40;100.00
13765;BME280;6953;48.810;9.204;2023-03-22T03:47:04;98168.28;;;7.26;100.00
13765;BME280;6953;48.810;9.204;2023-03-22T03:49:31;98505.38;;;9.17;100.00
13765;BME280;6953;48.810;9.204;2023-03-22T03:51:58;98505.44;;;9.16;100.00
13765;BME280;6953;48.810;9.204;2023-03-22T03:54:24;98500.38;;;9.13;100.00
13765;BME280;6953;48.810;9.204;2023-03-22T03:56:50;98478.88;;;8.89;100.00
13765;BME280;6953;48.810;9.204;2023-03-22T03:59:16;98507.88;;;9.02;100.00
13765;BME280;6953;48.810;9.204;2023-03-22T04:01:43;98334.91;;;7.88;100.00
13765;BME280;6953;48.810;9.204;2023-03-22T04:04:15;98508.56;;;8.88;100.00
13765;BME280;6953;48.810;9.204;2023-03-22T04:06:41;98244.16;;;7.22;100.00
13765;BME280;6953;48.810;9.204;2023-03-22T04:09:07;98152.81;;;6.68;100.00
13765;BME280;6953;48.810;9.204;2023-03-22T04:11:32;98233.47;;;7.08;100.00
13765;BME280;6953;48.810;9.204;2023-03-22T04:13:57;98540.06;;;8.68;100.00
13765;BME280;6953;48.810;9.204;2023-03-22T04:16:23;98507.06;;;8.66;100.00
13765;BME280;6953;48.810;9.204;2023-03-22T04:18:49;98508.91;;;8.64;100.00
13765;BME280;6953;48.810;9.204;2023-03-22T04:21:14;98523.91;;;8.60;100.00
13765;BME280;6953;48.810;9.204;2023-03-22T04:23:40;98498.00;;;8.56;100.00
13765;BME280;6953;48.810;9.204;2023-03-22T04:26:06;98419.66;;;7.99;100.00
13765;BME280;6953;48.810;9.204;2023-03-22T04:28:31;98325.22;;;7.36;100.00
13765;BME280;6953;48.810;9.204;2023-03-22T04:30:57;98504.22;;;8.35;100.00
13765;BME280;6953;48.810;9.204;2023-03-22T04:33:24;98282.59;;;6.99;100.00
13765;BME280;6953;48.810;9.204;2023-03-22T04:35:50;98537.06;;;8.22;100.00
13765;BME280;6953;48.810;9.204;2023-03-22T04:38:21;98477.56;;;8.09;100.00
13765;BME280;6953;48.810;9.204;2023-03-22T04:40:46;98474.13;;;8.08;100.00
13765;BME280;6953;48.810;9.204;2023-03-22T04:43:12;98502.38;;;8.19;100.00
13765;BME280;6953;48.810;9.204;2023-03-22T04:45:38;98448.81;;;7.72;100.00
13765;BME280;6953;48.810;9.204;2023-03-22T04:48:03;98204.94;;;6.50;100.00
13765;BME280;6953;48.810;9.204;2023-03-22T04:50:31;98512.31;;;8.11;100.00
13765;BME280;6953;48.810;9.204;2023-03-22T04:52:57;98480.16;;;8.09;100.00
13765;BME280;6953;48.810;9.204;2023-03-22T04:55:22;98442.19;;;7.83;100.00
13765;BME280;6953;48.810;9.204;2023-03-22T04:57:47;98475.03;;;8.07;100.00
13765;BME280;6953;48.810;9.204;2023-03-22T05:00:13;98473.47;;;8.03;100.00
13765;BME280;6953;48.810;9.204;2023-03-22T05:02:40;98385.31;;;7.53;100.00
13765;BME280;6953;48.810;9.204;2023-03-22T05:05:06;98390.19;;;7.60;100.00
13765;BME280;6953;48.810;9.204;2023-03-22T05:07:31;98463.88;;;8.04;100.00
13765;BME280;6953;48.810;9.204;2023-03-22T05:09:56;98461.50;;;8.18;100.00
13765;BME280;6953;48.810;9.204;2023-03-22T05:12:22;98456.84;;;8.24;100.00
13765;BME280;6953;48.810;9.204;2023-03-22T05:14:47;98461.06;;;8.26;100.00
13765;BME280;6953;48.810;9.204;2023-03-22T05:17:13;98462.84;;;8.26;100.00
13765;BME280;6953;48.810;9.204;2023-03-22T05:19:38;98430.41;;;8.12;100.00
13765;BME280;6953;48.810;9.204;2023-03-22T05:22:03;98354.97;;;7.69;100.00
13765;BME280;6953;48.810;9.204;2023-03-22T05:24:29;98444.31;;;8.30;100.00
13765;BME280;6953;48.810;9.204;2023-03-22T05:26:55;98496.06;;;8.41;100.00
13765;BME280;6953;48.810;9.204;2023-03-22T05:29:20;98445.03;;;8.34;100.00
13765;BME280;6953;48.810;9.204;2023-03-22T05:31:47;98179.94;;;6.83;100.00
13765;BME280;6953;48.810;9.204;2023-03-22T05:34:12;98444.25;;;8.32;100.00
13765;BME280;6953;48.810;9.204;2023-03-22T05:36:38;98464.56;;;8.44;100.00
13765;BME280;6953;48.810;9.204;2023-03-22T05:39:03;98189.19;;;6.90;100.00
13765;BME280;6953;48.810;9.204;2023-03-22T05:41:29;98446.78;;;8.33;100.00
13765;BME280;6953;48.810;9.204;2023-03-22T05:43:56;98218.06;;;7.04;100.00
13765;BME280;6953;48.810;9.204;2023-03-22T05:46:21;98360.41;;;7.83;100.00
13765;BME280;6953;48.810;9.204;2023-03-22T05:48:46;98474.75;;;8.50;100.00
13765;BME280;6953;48.810;9.204;2023-03-22T05:51:14;98434.78;;;8.29;100.00
13765;BME280;6953;48.810;9.204;2023-03-22T05:53:43;98466.53;;;8.57;100.00
13765;BME280;6953;48.810;9.204;2023-03-22T05:56:09;98464.44;;;8.64;100.00
13765;BME280;6953;48.810;9.204;2023-03-22T05:58:34;98445.69;;;8.56;100.00
13765;BME280;6953;48.810;9.204;2023-03-22T06:01:05;98401.34;;;8.36;100.00
13765;BME280;6953;48.810;9.204;2023-03-22T06:03:30;98479.34;;;8.80;100.00
13765;BME280;6953;48.810;9.204;2023-03-22T06:05:56;98384.28;;;8.29;100.00
13765;BME280;6953;48.810;9.204;2023-03-22T06:08:22;98473.09;;;9.00;100.00
13765;BME280;6953;48.810;9.204;2023-03-22T06:10:49;98502.13;;;9.12;100.00
13765;BME280;6953;48.810;9.204;2023-03-22T06:13:15;98454.97;;;9.14;100.00
13765;BME280;6953;48.810;9.204;2023-03-22T06:15:41;98471.25;;;9.35;100.00
13765;BME280;6953;48.810;9.204;2023-03-22T06:18:06;98499.31;;;9.49;100.00
13765;BME280;6953;48.810;9.204;2023-03-22T06:20:31;98454.31;;;9.26;100.00
13765;BME280;6953;48.810;9.204;2023-03-22T06:22:57;98501.84;;;9.67;100.00
13765;BME280;6953;48.810;9.204;2023-03-22T06:25:22;98451.81;;;9.56;100.00
13765;BME280;6953;48.810;9.204;2023-03-22T06:27:47;98496.53;;;9.69;100.00
13765;BME280;6953;48.810;9.204;2023-03-22T06:30:13;98494.03;;;10.00;100.00
13765;BME280;6953;48.810;9.204;2023-03-22T06:32:38;98432.34;;;9.77;100.00
13765;BME280;6953;48.810;9.204;2023-03-22T06:35:04;98467.13;;;10.12;100.00
13765;BME280;6953;48.810;9.204;2023-03-22T06:37:29;98507.75;;;10.35;100.00
13765;BME280;6953;48.810;9.204;2023-03-22T06:39:55;98486.34;;;10.43;100.00
13765;BME280;6953;48.810;9.204;2023-03-22T06:42:20;98518.50;;;10.62;100.00
13765;BME280;6953;48.810;9.204;2023-03-22T06:44:45;98484.06;;;10.68;100.00
13765;BME280;6953;48.810;9.204;2023-03-22T06:47:11;98501.03;;;10.92;100.00
13765;BME280;6953;48.810;9.204;2023-03-22T06:49:37;98531.59;;;11.08;100.00
13765;BME280;6953;48.810;9.204;2023-03-22T06:52:03;98340.28;;;10.30;100.00
13765;BME280;6953;48.810;9.204;2023-03-22T06:54:28;98263.25;;;10.03;99.24
13765;BME280;6953;48.810;9.204;2023-03-22T06:56:53;98490.38;;;11.53;97.91
13765;BME280;6953;48.810;9.204;2023-03-22T06:59:19;98389.06;;;11.06;96.42
13765;BME280;6953;48.810;9.204;2023-03-22T07:01:44;98529.91;;;11.94;95.15
13765;BME280;6953;48.810;9.204;2023-03-22T07:04:10;98500.72;;;12.12;94.23
13765;BME280;6953;48.810;9.204;2023-03-22T07:06:35;98261.56;;;10.88;92.26
13765;BME280;6953;48.810;9.204;2023-03-22T07:09:00;98512.06;;;12.41;91.19
13765;BME280;6953;48.810;9.204;2023-03-22T07:11:26;98508.50;;;12.82;90.14
13765;BME280;6953;48.810;9.204;2023-03-22T07:13:52;98489.97;;;14.23;84.94
13765;BME280;6953;48.810;9.204;2023-03-22T07:16:18;98486.47;;;16.63;75.44
13765;BME280;6953;48.810;9.204;2023-03-22T07:18:43;98286.03;;;18.22;64.03
13765;BME280;6953;48.810;9.204;2023-03-22T07:21:09;98482.44;;;21.76;55.41
13765;BME280;6953;48.810;9.204;2023-03-22T07:23:34;98520.06;;;23.33;47.38
13765;BME280;6953;48.810;9.204;2023-03-22T07:26:00;98472.78;;;24.59;42.38
13765;BME280;6953;48.810;9.204;2023-03-22T07:28:25;98502.91;;;25.68;37.18
13765;BME280;6953;48.810;9.204;2023-03-22T07:31:06;98481.06;;;25.94;35.56
13765;BME280;6953;48.810;9.204;2023-03-22T07:33:33;98477.25;;;26.39;32.71
13765;BME280;6953;48.810;9.204;2023-03-22T07:35:59;98484.28;;;26.40;31.03
13765;BME280;6953;48.810;9.204;2023-03-22T07:38:25;98321.91;;;25.76;30.48
13765;BME280;6953;48.810;9.204;2023-03-22T07:40:51;98334.06;;;25.86;29.42
13765;BME280;6953;48.810;9.204;2023-03-22T07:43:19;98472.84;;;27.25;27.80
13765;BME280;6953;48.810;9.204;2023-03-22T07:45:44;98497.53;;;28.06;25.79
13765;BME280;6953;48.810;9.204;2023-03-22T07:48:10;98503.59;;;28.62;25.40
13765;BME280;6953;48.810;9.204;2023-03-22T07:50:36;98505.91;;;28.99;24.69
13765;BME280;6953;48.810;9.204;2023-03-22T07:53:01;98526.63;;;28.58;24.60
13765;BME280;6953;48.810;9.204;2023-03-22T07:55:28;98514.38;;;28.56;24.48
13765;BME280;6953;48.810;9.204;2023-03-22T07:57:53;98535.38;;;28.88;24.20
13765;BME280;6953;48.810;9.204;2023-03-22T08:00:19;98510.56;;;29.18;23.73
13765;BME280;6953;48.810;9.204;2023-03-22T08:02:44;98511.19;;;29.14;23.66
13765;BME280;6953;48.810;9.204;2023-03-22T08:05:10;98331.78;;;28.61;22.93
13765;BME280;6953;48.810;9.204;2023-03-22T08:07:35;98518.97;;;30.48;21.99
13765;BME280;6953;48.810;9.204;2023-03-22T08:10:02;98516.28;;;30.54;21.76
13765;BME280;6953;48.810;9.204;2023-03-22T08:12:28;98492.25;;;29.86;22.15
13765;BME280;6953;48.810;9.204;2023-03-22T08:14:53;98531.53;;;29.57;22.71
13765;BME280;6953;48.810;9.204;2023-03-22T08:17:19;98509.50;;;29.60;22.80
13765;BME280;6953;48.810;9.204;2023-03-22T08:19:44;98512.50;;;30.49;21.71
13765;BME280;6953;48.810;9.204;2023-03-22T08:22:10;98468.91;;;31.33;20.86
13765;BME280;6953;48.810;9.204;2023-03-22T08:24:36;98486.91;;;31.95;20.07
13765;BME280;6953;48.810;9.204;2023-03-22T08:27:02;98360.91;;;30.79;20.37
13765;BME280;6953;48.810;9.204;2023-03-22T08:29:27;98442.72;;;31.14;21.02
13765;BME280;6953;48.810;9.204;2023-03-22T08:31:52;98508.88;;;31.57;20.33
13765;BME280;6953;48.810;9.204;2023-03-22T08:34:19;98458.63;;;30.91;20.89
13765;BME280;6953;48.810;9.204;2023-03-22T08:36:45;98451.03;;;30.69;20.87
13765;BME280;6953;48.810;9.204;2023-03-22T08:39:10;98495.81;;;30.71;21.40
13765;BME280;6953;48.810;9.204;2023-03-22T08:41:36;98497.41;;;30.98;21.28
13765;BME280;6953;48.810;9.204;2023-03-22T08:44:01;98508.94;;;31.44;21.00
13765;BME280;6953;48.810;9.204;2023-03-22T08:46:27;98492.41;;;32.20;20.19
13765;BME280;6953;48.810;9.204;2023-03-22T08:48:52;98497.94;;;31.76;20.42
13765;BME280;6953;48.810;9.204;2023-03-22T08:51:21;98502.78;;;32.29;20.18
13765;BME280;6953;48.810;9.204;2023-03-22T08:53:48;98404.66;;;32.19;19.67
13765;BME280;6953;48.810;9.204;2023-03-22T08:56:13;98472.97;;;33.37;18.56
13765;BME280;6953;48.810;9.204;2023-03-22T08:58:42;98472.72;;;33.86;18.49
13765;BME280;6953;48.810;9.204;2023-03-22T09:01:15;98492.25;;;34.46;18.23
13765;BME280;6953;48.810;9.204;2023-03-22T09:03:41;98492.00;;;34.36;17.95
13765;BME280;6953;48.810;9.204;2023-03-22T09:06:07;98385.91;;;33.89;17.88
13765;BME280;6953;48.810;9.204;2023-03-22T09:08:33;98502.91;;;35.05;17.44
13765;BME280;6953;48.810;9.204;2023-03-22T09:10:59;98341.41;;;34.18;17.10
13765;BME280;6953;48.810;9.204;2023-03-22T09:13:24;98504.47;;;35.01;17.18
13765;BME280;6953;48.810;9.204;2023-03-22T09:15:50;98456.38;;;34.72;17.29
13765;BME280;6953;48.810;9.204;2023-03-22T09:18:19;98319.84;;;34.16;16.51
13765;BME280;6953;48.810;9.204;2023-03-22T09:20:45;98514.56;;;34.89;17.13
13765;BME280;6953;48.810;9.204;2023-03-22T09:23:11;98488.84;;;34.85;17.43
13765;BME280;6953;48.810;9.204;2023-03-22T09:25:37;98428.53;;;35.10;16.87
13765;BME280;6953;48.810;9.204;2023-03-22T09:28:03;98506.53;;;36.01;16.65
13765;BME280;6953;48.810;9.204;2023-03-22T09:30:29;98487.28;;;35.79;16.46
13765;BME280;6953;48.810;9.204;2023-03-22T09:32:55;98380.13;;;35.17;16.75
13765;BME280;6953;48.810;9.204;2023-03-22T09:35:20;98477.69;;;35.77;16.94
13765;BME280;6953;48.810;9.204;2023-03-22T09:37:46;98472.28;;;35.65;16.74
13765;BME280;6953;48.810;9.204;2023-03-22T09:40:13;98472.78;;;36.07;16.04
13765;BME280;6953;48.810;9.204;2023-03-22T09:42:42;98469.47;;;36.54;16.28
13765;BME280;6953;48.810;9.204;2023-03-22T09:45:14;98463.19;;;36.04;15.75
13765;BME280;6953;48.810;9.204;2023-03-22T09:47:44;98451.09;;;36.17;16.20
13765;BME280;6953;48.810;9.204;2023-03-22T09:50:22;98466.91;;;36.47;16.04
13765;BME280;6953;48.810;9.204;2023-03-22T09:52:49;98489.97;;;36.51;16.12
13765;BME280;6953;48.810;9.204;2023-03-22T09:55:34;98460.78;;;36.08;16.13
13765;BME280;6953;48.810;9.204;2023-03-22T09:58:31;98312.16;;;35.48;16.50
13765;BME280;6953;48.810;9.204;2023-03-22T10:06:24;98436.22;;;37.95;15.07
13765;BME280;6953;48.810;9.204;2023-03-22T10:09:28;98439.94;;;38.42;14.66
13765;BME280;6953;48.810;9.204;2023-03-22T10:14:42;98260.69;;;35.89;15.37
13765;BME280;6953;48.810;9.204;2023-03-22T10:17:13;98389.00;;;34.38;16.96
13765;BME280;6953;48.810;9.204;2023-03-22T10:20:22;98421.13;;;32.24;19.04
13765;BME280;6953;48.810;9.204;2023-03-22T10:22:57;98399.06;;;31.28;20.03
13765;BME280;6953;48.810;9.204;2023-03-22T10:25:35;98398.13;;;31.03;20.01
13765;BME280;6953;48.810;9.204;2023-03-22T10:28:05;98390.63;;;31.05;20.37
13765;BME280;6953;48.810;9.204;2023-03-22T10:30:36;98167.03;;;31.50;18.83
13765;BME280;6953;48.810;9.204;2023-03-22T10:33:12;98331.81;;;34.15;17.45
13765;BME280;6953;48.810;9.204;2023-03-22T10:35:38;98253.81;;;35.05;17.03
13765;BME280;6953;48.810;9.204;2023-03-22T10:38:17;98387.69;;;36.74;15.50
13765;BME280;6953;48.810;9.204;2023-03-22T10:40:44;98226.91;;;36.54;15.00
13765;BME280;6953;48.810;9.204;2023-03-22T10:43:24;98405.09;;;38.06;14.21
13765;BME280;6953;48.810;9.204;2023-03-22T10:45:52;98394.47;;;38.51;14.31
13765;BME280;6953;48.810;9.204;2023-03-22T10:48:26;98409.63;;;37.91;14.55
13765;BME280;6953;48.810;9.204;2023-03-22T10:50:53;98193.78;;;37.76;13.89
13765;BME280;6953;48.810;9.204;2023-03-22T10:56:01;98224.28;;;39.37;12.76
13765;BME280;6953;48.810;9.204;2023-03-22T10:58:32;98376.53;;;38.34;14.39
13765;BME280;6953;48.810;9.204;2023-03-22T11:01:04;98391.50;;;38.21;14.46
13765;BME280;6953;48.810;9.204;2023-03-22T11:03:51;98389.13;;;39.42;13.61
13765;BME280;6953;48.810;9.204;2023-03-22T11:06:17;98376.88;;;40.04;12.84
13765;BME280;6953;48.810;9.204;2023-03-22T11:08:56;98380.00;;;38.24;14.31
13765;BME280;6953;48.810;9.204;2023-03-22T11:16:17;98361.53;;;36.61;15.73
13765;BME280;6953;48.810;9.204;2023-03-22T11:18:44;98378.25;;;35.94;16.37
13765;BME280;6953;48.810;9.204;2023-03-22T11:21:11;98357.91;;;36.18;16.41
13765;BME280;6953;48.810;9.204;2023-03-22T11:23:40;98344.38;;;35.95;16.35
13765;BME280;6953;48.810;9.204;2023-03-22T11:26:12;98327.69;;;35.92;16.17
13765;BME280;6953;48.810;9.204;2023-03-22T11:28:45;98299.06;;;36.75;15.79
13765;BME280;6953;48.810;9.204;2023-03-22T11:31:13;98325.25;;;37.14;15.17
13765;BME280;6953;48.810;9.204;2023-03-22T11:33:54;98336.78;;;37.42;14.58
13765;BME280;6953;48.810;9.204;2023-03-22T11:36:20;98332.22;;;37.52;14.02
13765;BME280;6953;48.810;9.204;2023-03-22T11:38:46;98349.28;;;37.07;13.85
13765;BME280;6953;48.810;9.204;2023-03-22T11:41:21;98359.78;;;37.67;13.40
13765;BME280;6953;48.810;9.204;2023-03-22T11:43:50;98154.59;;;37.71;12.66
13765;BME280;6953;48.810;9.204;2023-03-22T11:46:17;98340.00;;;40.05;11.66
13765;BME280;6953;48.810;9.204;2023-03-22T11:48:45;98183.34;;;39.21;12.15
13765;BME280;6953;48.810;9.204;2023-03-22T11:51:31;98294.63;;;39.38;12.16
13765;BME280;6953;48.810;9.204;2023-03-22T11:54:14;98348.44;;;38.22;12.90
13765;BME280;6953;48.810;9.204;2023-03-22T11:56:44;98282.69;;;37.01;14.10
13765;BME280;6953;48.810;9.204;2023-03-22T11:59:16;98327.91;;;36.61;13.87
13765;BME280;6953;48.810;9.204;2023-03-22T12:02:04;98297.88;;;36.66;13.75
13765;BME280;6953;48.810;9.204;2023-03-22T12:04:38;98295.47;;;37.17;13.49
13765;BME280;6953;48.810;9.204;2023-03-22T12:07:13;98310.16;;;37.64;13.21
13765;BME280;6953;48.810;9.204;2023-03-22T12:12:13;98110.22;;;36.38;15.37
13765;BME280;6953;48.810;9.204;2023-03-22T12:15:03;98291.22;;;37.31;14.44
13765;BME280;6953;48.810;9.204;2023-03-22T12:17:56;98289.41;;;37.42;14.10
13765;BME280;6953;48.810;9.204;2023-03-22T12:23:17;98306.91;;;36.66;15.15
13765;BME280;6953;48.810;9.204;2023-03-22T12:25:53;98279.44;;;35.64;17.23
13765;BME280;6953;48.810;9.204;2023-03-22T12:28:27;98263.94;;;34.03;18.16
13765;BME280;6953;48.810;9.204;2023-03-22T12:30:55;98263.97;;;33.16;19.06
13765;BME280;6953;48.810;9.204;2023-03-22T12:33:26;98262.88;;;33.92;18.33
13765;BME280;6953;48.810;9.204;2023-03-22T12:36:03;98202.75;;;33.36;17.91
13765;BME280;6953;48.810;9.204;2023-03-22T12:38:40;98267.38;;;33.11;18.35
13765;BME280;6953;48.810;9.204;2023-03-22T12:41:15;98260.16;;;33.92;17.75
13765;BME280;6953;48.810;9.204;2023-03-22T12:46:19;98000.81;;;33.00;17.03
13765;BME280;6953;48.810;9.204;2023-03-22T12:48:49;98265.59;;;34.66;16.45
13765;BME280;6953;48.810;9.204;2023-03-22T12:51:16;98237.75;;;34.13;17.54
13765;BME280;6953;48.810;9.204;2023-03-22T12:53:44;98045.78;;;32.80;17.47
13765;BME280;6953;48.810;9.204;2023-03-22T12:56:14;98260.59;;;33.32;17.76
13765;BME280;6953;48.810;9.204;2023-03-22T12:58:42;98273.38;;;33.43;17.78
13765;BME280;6953;48.810;9.204;2023-03-22T13:01:23;98134.09;;;33.11;17.06
13765;BME280;6953;48.810;9.204;2023-03-22T13:03:52;98245.81;;;34.87;16.45
13765;BME280;6953;48.810;9.204;2023-03-22T13:11:34;98134.97;;;37.43;13.84
13765;BME280;6953;48.810;9.204;2023-03-22T13:14:00;98258.34;;;39.16;13.08
13765;BME280;6953;48.810;9.204;2023-03-22T13:16:47;98204.50;;;39.25;12.50
13765;BME280;6953;48.810;9.204;2023-03-22T13:19:26;98275.59;;;40.36;12.04
13765;BME280;6953;48.810;9.204;2023-03-22T13:22:19;98265.44;;;40.12;11.04
13765;BME280;6953;48.810;9.204;2023-03-22T13:27:52;98224.06;;;36.07;13.09
13765;BME280;6953;48.810;9.204;2023-03-22T13:30:24;98274.22;;;34.23;14.75
13765;BME280;6953;48.810;9.204;2023-03-22T13:32:51;98254.34;;;33.02;15.30
13765;BME280;6953;48.810;9.204;2023-03-22T13:35:26;98043.19;;;31.74;15.80
13765;BME280;6953;48.810;9.204;2023-03-22T13:37:59;98254.31;;;33.31;15.75
13765;BME280;6953;48.810;9.204;2023-03-22T13:40:27;98227.69;;;33.33;16.23
13765;BME280;6953;48.810;9.204;2023-03-22T13:43:11;98211.25;;;32.29;16.61
13765;BME280;6953;48.810;9.204;2023-03-22T13:53:44;98197.63;;;28.09;20.93
13765;BME280;6953;48.810;9.204;2023-03-22T13:56:28;98206.91;;;27.59;20.95
13765;BME280;6953;48.810;9.204;2023-03-22T13:58:54;98122.28;;;26.65;21.46
13765;BME280;6953;48.810;9.204;2023-03-22T14:01:50;98180.81;;;26.57;21.90
13765;BME280;6953;48.810;9.204;2023-03-22T14:04:15;97964.59;;;24.89;22.33
13765;BME280;6953;48.810;9.204;2023-03-22T14:06:57;98100.66;;;25.61;23.32
13765;BME280;6953;48.810;9.204;2023-03-22T14:09:28;98090.00;;;25.53;23.43
13765;BME280;6953;48.810;9.204;2023-03-22T14:12:15;98152.72;;;25.74;23.76
13765;BME280;6953;48.810;9.204;2023-03-22T14:17:28;98160.44;;;25.34;24.09
13765;BME280;6953;48.810;9.204;2023-03-22T14:19:56;98138.19;;;25.11;24.26
13765;BME280;6953;48.810;9.204;2023-03-22T14:22:35;97855.69;;;23.28;25.00
13765;BME280;6953;48.810;9.204;2023-03-22T14:25:03;98132.53;;;24.92;24.59
13765;BME280;6953;48.810;9.204;2023-03-22T14:27:32;98070.91;;;24.47;24.34
13765;BME280;6953;48.810;9.204;2023-03-22T14:29:57;98144.22;;;24.62;24.32
13765;BME280;6953;48.810;9.204;2023-03-22T14:32:26;98089.63;;;24.32;24.31
13765;BME280;6953;48.810;9.204;2023-03-22T14:34:57;97916.78;;;23.24;24.54
13765;BME280;6953;48.810;9.204;2023-03-22T14:37:26;98145.31;;;24.53;24.59